Time;durP1;ratioP1;P1;durP2;ratioP2;P2;SDS_P1;SDS_P2;PMS_P1;PMS_P2;Temp;Humidity;BMP_temperature;BMP_pressure;BME280_temperature;BME280_humidity;BME280_pressure;Samples;Min_cycle;Max_cycle;Signal;HPM_P1;HPM_P2
2021/10/14 06:00:24;;;;;;;59.03;28.90;;;9.80;99.90;;;;;;6150651;22;20734;-79
2021/10/14 06:02:51;;;;;;;67.93;29.15;;;9.70;99.90;;;;;;6274174;22;20019;-78
2021/10/14 06:05:18;;;;;;;68.00;30.02;;;9.70;99.90;;;;;;6273754;22;20485;-78
2021/10/14 06:07:45;;;;;;;65.75;27.90;;;9.70;99.90;;;;;;6274190;22;20081;-79
2021/10/14 06:10:12;;;;;;;73.53;29.73;;;9.70;99.90;;;;;;6272951;22;20473;-79
2021/10/14 06:12:39;;;;;;;74.40;30.30;;;9.80;99.90;;;;;;6274416;22;20089;-79
2021/10/14 06:15:07;;;;;;;70.40;29.73;;;9.70;99.90;;;;;;6272651;22;20480;-78
2021/10/14 06:17:34;;;;;;;38.95;22.23;;;9.70;99.90;;;;;;6273586;22;20015;-79
2021/10/14 06:20:01;;;;;;;60.10;27.77;;;9.70;99.90;;;;;;6273537;22;20497;-77
2021/10/14 06:22:28;;;;;;;61.42;29.00;;;9.70;99.90;;;;;;6272540;22;20028;-81
2021/10/14 06:24:55;;;;;;;58.28;27.27;;;9.70;99.90;;;;;;6274223;22;20400;-78
2021/10/14 06:27:22;;;;;;;63.13;28.23;;;9.70;99.90;;;;;;6273219;22;20020;-79
2021/10/14 06:29:49;;;;;;;57.58;27.38;;;9.70;99.90;;;;;;6274478;22;20369;-79
2021/10/14 06:32:16;;;;;;;63.00;27.92;;;9.70;99.90;;;;;;6272883;22;20555;-78
2021/10/14 06:34:43;;;;;;;56.05;26.65;;;9.70;99.90;;;;;;6273691;22;20198;-78
2021/10/14 06:37:10;;;;;;;54.75;26.48;;;9.70;99.90;;;;;;6246454;22;20466;-78
2021/10/14 06:39:37;;;;;;;54.83;26.20;;;9.60;99.90;;;;;;6273010;22;20073;-78
2021/10/14 06:42:04;;;;;;;60.83;27.63;;;9.60;99.90;;;;;;6273406;22;20023;-78
2021/10/14 06:44:55;;;;;;;53.70;24.77;;;9.60;99.90;;;;;;6273529;22;20546;-78
2021/10/14 06:47:22;;;;;;;56.58;25.70;;;9.60;99.90;;;;;;6273038;22;20020;-78
2021/10/14 06:49:49;;;;;;;45.10;24.40;;;9.60;99.90;;;;;;6273822;22;20019;-79
2021/10/14 06:52:17;;;;;;;51.10;24.95;;;9.60;99.90;;;;;;6272916;22;20024;-78
2021/10/14 06:54:44;;;;;;;52.20;25.33;;;9.60;99.90;;;;;;6273925;22;20045;-79
2021/10/14 06:57:11;;;;;;;53.80;24.30;;;9.60;99.90;;;;;;6272982;22;20366;-79
2021/10/14 06:59:38;;;;;;;57.05;24.73;;;9.60;99.90;;;;;;6273615;22;20077;-79
2021/10/14 07:02:06;;;;;;;46.05;24.80;;;9.60;99.90;;;;;;6273327;22;20012;-79
2021/10/14 07:04:33;;;;;;;44.05;22.80;;;9.60;99.90;;;;;;6273831;22;20038;-80
2021/10/14 07:07:00;;;;;;;51.67;24.30;;;9.60;99.90;;;;;;6274150;22;20085;-79
2021/10/14 07:09:27;;;;;;;47.42;24.63;;;9.60;99.90;;;;;;6272345;22;20055;-79
2021/10/14 07:11:59;;;;;;;40.67;23.17;;;9.70;99.90;;;;;;6272328;22;20404;-79
2021/10/14 07:14:26;;;;;;;44.58;23.40;;;9.70;99.90;;;;;;6273157;22;20026;-79
2021/10/14 07:16:53;;;;;;;42.30;23.20;;;9.70;99.90;;;;;;6271926;22;20397;-78
2021/10/14 07:19:20;;;;;;;46.35;22.38;;;9.70;99.90;;;;;;6272731;22;20027;-78
2021/10/14 07:21:47;;;;;;;45.58;21.85;;;9.70;99.90;;;;;;6273520;22;20020;-78
2021/10/14 07:24:16;;;;;;;41.47;21.63;;;9.80;99.90;;;;;;6272701;22;20084;-77
2021/10/14 07:26:43;;;;;;;22.15;16.35;;;9.80;99.90;;;;;;6273460;22;20016;-78
2021/10/14 07:29:10;;;;;;;38.97;20.42;;;9.90;99.90;;;;;;6272727;22;20019;-78
2021/10/14 07:31:37;;;;;;;32.80;19.23;;;9.90;99.90;;;;;;6272437;22;20024;-78
2021/10/14 07:34:04;;;;;;;32.50;19.15;;;9.90;99.90;;;;;;6271090;22;20024;-78
2021/10/14 07:36:31;;;;;;;39.63;19.55;;;10.00;99.90;;;;;;6271940;22;20405;-78
2021/10/14 07:39:00;;;;;;;32.28;18.80;;;10.00;99.90;;;;;;6271876;22;20077;-78
2021/10/14 07:41:27;;;;;;;23.60;14.88;;;10.10;99.90;;;;;;6270500;22;20015;-77
2021/10/14 07:43:55;;;;;;;32.17;18.05;;;10.10;99.90;;;;;;6272547;22;20027;-78
2021/10/14 07:46:21;;;;;;;35.47;18.58;;;10.20;99.90;;;;;;6272290;22;20016;-78
2021/10/14 07:48:48;;;;;;;28.75;17.83;;;10.30;99.90;;;;;;6272386;22;20016;-78
2021/10/14 07:51:15;;;;;;;25.70;15.60;;;10.30;99.90;;;;;;6271747;22;20682;-78
2021/10/14 07:53:42;;;;;;;16.35;12.30;;;10.40;99.90;;;;;;6272760;22;20019;-78
2021/10/14 07:56:10;;;;;;;28.17;16.55;;;10.50;99.90;;;;;;6271387;22;20024;-78
2021/10/14 07:58:36;;;;;;;17.05;11.65;;;10.50;99.90;;;;;;6272493;22;20469;-78
2021/10/14 08:01:04;;;;;;;25.73;15.63;;;10.60;99.90;;;;;;6272293;22;20019;-78
2021/10/14 08:03:32;;;;;;;18.02;11.05;;;10.70;99.90;;;;;;6271449;22;20040;-78
2021/10/14 08:05:58;;;;;;;21.52;12.98;;;10.70;99.90;;;;;;6272316;22;20015;-78
2021/10/14 08:08:25;;;;;;;12.32;10.48;;;10.80;99.90;;;;;;6272289;22;20023;-78
2021/10/14 08:10:53;;;;;;;25.13;12.98;;;10.90;99.90;;;;;;6271735;22;20016;-79
2021/10/14 08:13:20;;;;;;;15.97;10.10;;;11.00;99.90;;;;;;6271334;22;20023;-78
2021/10/14 08:15:52;;;;;;;20.15;12.70;;;11.10;99.90;;;;;;6272860;22;20012;-78
2021/10/14 08:18:22;;;;;;;12.80;8.38;;;11.20;99.90;;;;;;6271626;22;20814;-78
2021/10/14 08:20:51;;;;;;;18.55;11.00;;;11.30;99.90;;;;;;6272079;22;20024;-78
2021/10/14 08:23:18;;;;;;;10.25;7.60;;;11.40;99.90;;;;;;6271550;22;20081;-78
2021/10/14 08:25:45;;;;;;;13.20;7.20;;;11.40;99.90;;;;;;6271928;22;20023;-77
2021/10/14 08:28:13;;;;;;;11.25;7.43;;;11.50;99.90;;;;;;6271794;22;20015;-78
2021/10/14 08:30:40;;;;;;;12.93;6.63;;;11.60;99.90;;;;;;6272135;22;20453;-78
2021/10/14 08:33:07;;;;;;;9.20;6.68;;;11.70;99.90;;;;;;6271501;22;20481;-78
2021/10/14 08:35:37;;;;;;;9.50;6.68;;;11.80;99.90;;;;;;6272013;22;20024;-78
2021/10/14 08:38:06;;;;;;;8.75;7.25;;;11.90;99.90;;;;;;6272087;22;20023;-77
2021/10/14 08:40:35;;;;;;;8.20;5.85;;;12.00;99.90;;;;;;6271358;22;20026;-78
2021/10/14 08:43:05;;;;;;;8.90;6.03;;;12.10;99.90;;;;;;6271920;22;20376;-79
2021/10/14 08:45:36;;;;;;;11.18;6.28;;;12.20;99.90;;;;;;6271847;22;20026;-78
2021/10/14 08:48:04;;;;;;;9.57;6.10;;;12.30;99.90;;;;;;6273988;22;20046;-78
2021/10/14 08:50:33;;;;;;;11.95;6.38;;;12.50;99.90;;;;;;6273797;22;20012;-79
2021/10/14 08:53:00;;;;;;;7.28;5.47;;;12.50;99.90;;;;;;6274179;22;20019;-79
2021/10/14 08:55:27;;;;;;;8.90;4.75;;;12.60;99.90;;;;;;6272850;22;20319;-78
2021/10/14 08:57:54;;;;;;;11.32;5.30;;;12.70;99.90;;;;;;6274103;22;20404;-78
2021/10/14 09:00:21;;;;;;;10.73;5.38;;;12.80;99.90;;;;;;6272751;22;20027;-78
2021/10/14 09:02:48;;;;;;;10.07;4.82;;;12.90;99.90;;;;;;6273818;22;20073;-78
2021/10/14 09:05:16;;;;;;;9.55;6.53;;;13.00;99.90;;;;;;6273511;22;20027;-78
2021/10/14 09:07:48;;;;;;;8.80;4.60;;;13.10;99.90;;;;;;6273690;22;20430;-79
2021/10/14 09:10:16;;;;;;;6.22;4.22;;;13.20;99.90;;;;;;6272805;22;20027;-79
2021/10/14 09:12:46;;;;;;;5.35;3.67;;;13.20;99.90;;;;;;6273709;22;20020;-79
2021/10/14 09:15:16;;;;;;;9.63;3.97;;;13.30;99.90;;;;;;6272766;22;20565;-78
2021/10/14 09:17:55;;;;;;;7.50;3.42;;;13.40;99.90;;;;;;6274021;22;20023;-79
2021/10/14 09:20:29;;;;;;;8.25;3.88;;;13.50;99.90;;;;;;6273537;22;20073;-79
2021/10/14 09:23:02;;;;;;;6.18;3.60;;;13.60;99.90;;;;;;6273139;22;20542;-78
2021/10/14 09:25:40;;;;;;;7.65;3.47;;;13.70;99.90;;;;;;6272542;22;20765;-79
2021/10/14 09:28:23;;;;;;;4.57;2.25;;;13.70;99.90;;;;;;6272836;22;20015;-78
2021/10/14 09:30:57;;;;;;;5.82;2.00;;;13.80;99.90;;;;;;6273473;22;20077;-78
2021/10/14 09:33:36;;;;;;;6.82;2.17;;;13.90;99.90;;;;;;6272865;22;20378;-79
2021/10/14 09:36:20;;;;;;;4.53;1.92;;;14.00;99.90;;;;;;6273352;22;20400;-78
2021/10/14 09:39:03;;;;;;;4.93;1.83;;;14.10;99.90;;;;;;6272875;22;20045;-79
2021/10/14 09:41:41;;;;;;;4.45;1.60;;;14.10;99.90;;;;;;6272771;22;20020;-78
2021/10/14 09:44:15;;;;;;;5.20;1.88;;;14.20;99.90;;;;;;6246338;22;20016;-78
2021/10/14 09:47:00;;;;;;;8.27;1.77;;;14.30;99.90;;;;;;6273877;22;20024;-79
2021/10/14 09:49:32;;;;;;;5.22;1.23;;;14.30;99.90;;;;;;6272563;22;20020;-80
2021/10/14 09:52:01;;;;;;;3.75;1.20;;;14.40;99.90;;;;;;6273409;22;20012;-78
2021/10/14 09:54:31;;;;;;;2.80;1.40;;;14.50;99.90;;;;;;6273041;22;20091;-81
2021/10/14 09:56:59;;;;;;;4.60;1.30;;;14.50;99.90;;;;;;6272900;22;20024;-79
2021/10/14 09:59:26;;;;;;;3.42;1.10;;;14.60;99.90;;;;;;6272337;22;20027;-80
2021/10/14 10:01:56;;;;;;;4.63;1.20;;;14.60;99.90;;;;;;6273008;22;20069;-80
2021/10/14 10:04:25;;;;;;;5.40;1.40;;;14.70;99.90;;;;;;6272981;22;20066;-80
2021/10/14 10:06:55;;;;;;;5.25;1.10;;;14.80;99.90;;;;;;6272836;22;20019;-80
2021/10/14 10:09:32;;;;;;;2.40;1.00;;;14.80;99.90;;;;;;6272618;22;20016;-80
2021/10/14 10:12:00;;;;;;;4.72;1.38;;;14.90;99.90;;;;;;6273005;22;20069;-79
2021/10/14 10:14:27;;;;;;;4.45;1.33;;;15.00;99.90;;;;;;6272866;22;20020;-79
2021/10/14 10:17:01;;;;;;;5.75;1.33;;;15.00;99.90;;;;;;6273059;22;20069;-79
2021/10/14 10:19:49;;;;;;;3.90;1.20;;;15.00;99.90;;;;;;6272569;22;20020;-80
2021/10/14 10:22:35;;;;;;;;;;;15.10;99.90;;;;;;6272783;22;20026;-80
2021/10/14 10:25:23;;;;;;;5.50;1.33;;;15.20;99.90;;;;;;6273111;22;19915;-80
2021/10/14 10:27:51;;;;;;;4.78;1.30;;;15.20;99.90;;;;;;6272623;22;20016;-79
2021/10/14 10:30:39;;;;;;;4.97;1.70;;;15.20;99.90;;;;;;6272982;22;20015;-79
2021/10/14 10:33:08;;;;;;;3.17;0.90;;;15.30;99.90;;;;;;6272628;22;20276;-79
2021/10/14 10:35:44;;;;;;;4.80;1.20;;;15.30;99.90;;;;;;6273429;22;20098;-79
2021/10/14 10:38:19;;;;;;;4.32;1.10;;;15.40;99.90;;;;;;6245509;22;20069;-80
2021/10/14 10:40:51;;;;;;;5.07;1.08;;;15.40;99.90;;;;;;6272840;22;20410;-78
2021/10/14 10:43:26;;;;;;;2.75;0.80;;;15.40;99.90;;;;;;6271864;22;20050;-80
2021/10/14 10:45:56;;;;;;;2.63;1.20;;;15.50;99.90;;;;;;6272874;22;20366;-80
2021/10/14 10:48:40;;;;;;;3.60;1.38;;;15.50;99.90;;;;;;6272102;22;21518;-80
2021/10/14 10:51:14;;;;;;;5.38;1.50;;;15.60;99.90;;;;;;6270963;22;20421;-80
2021/10/14 10:53:44;;;;;;;3.28;1.00;;;15.60;99.90;;;;;;6241417;22;20736;-80
2021/10/14 10:56:45;;;;;;;2.97;0.80;;;15.60;99.90;;;;;;6267966;22;20020;-80
2021/10/14 10:59:32;;;;;;;2.10;1.05;;;15.60;99.90;;;;;;6113990;23;20084;-80
2021/10/14 11:02:02;;;;;;;2.88;1.17;;;15.50;99.90;;;;;;6089965;23;20492;-79
2021/10/14 11:04:30;;;;;;;3.70;1.00;;;15.50;99.90;;;;;;6114174;23;20125;-80
2021/10/14 11:06:57;;;;;;;3.22;1.20;;;15.50;99.90;;;;;;6114459;23;20030;-79
2021/10/14 11:09:27;;;;;;;3.30;1.70;;;15.60;99.90;;;;;;6113721;23;22309;-80
2021/10/14 11:12:05;;;;;;;3.30;1.30;;;15.60;99.90;;;;;;6090299;23;20358;-80
2021/10/14 11:14:38;;;;;;;1.30;0.90;;;15.60;99.90;;;;;;6114512;23;20025;-79
2021/10/14 11:17:13;;;;;;;2.88;1.00;;;15.60;99.90;;;;;;6113815;23;20030;-80
2021/10/14 11:19:40;;;;;;;3.33;1.15;;;15.60;99.90;;;;;;6114388;23;20515;-79
2021/10/14 11:22:17;;;;;;;4.32;0.95;;;15.60;99.90;;;;;;6089471;23;20029;-79
2021/10/14 11:24:46;;;;;;;4.63;1.00;;;15.60;99.90;;;;;;6116032;23;20017;-80
2021/10/14 11:27:18;;;;;;;3.20;1.05;;;15.50;99.90;;;;;;6119651;23;20096;-80
2021/10/14 11:29:47;;;;;;;3.85;1.15;;;15.50;99.90;;;;;;6119783;23;20022;-80
2021/10/14 11:32:22;;;;;;;3.13;0.80;;;15.50;99.90;;;;;;6118867;23;20042;-81
2021/10/14 11:34:49;;;;;;;3.33;1.17;;;15.50;99.90;;;;;;6194037;22;20019;-81
2021/10/14 11:37:17;;;;;;;4.28;0.90;;;15.50;99.90;;;;;;6271423;22;20020;-79
2021/10/14 11:39:49;;;;;;;5.28;1.30;;;15.60;99.90;;;;;;6272771;22;20020;-81
2021/10/14 11:42:21;;;;;;;1.90;1.00;;;15.60;99.90;;;;;;6272423;22;20339;-80
2021/10/14 11:44:52;;;;;;;2.90;0.80;;;15.60;99.90;;;;;;6272769;22;20012;-80
2021/10/14 11:47:21;;;;;;;3.25;0.90;;;15.60;99.90;;;;;;6271938;22;20106;-80
2021/10/14 11:50:03;;;;;;;3.40;0.90;;;15.60;99.90;;;;;;6272443;22;20024;-80
2021/10/14 11:52:30;;;;;;;3.03;1.00;;;15.60;99.90;;;;;;6272605;22;20020;-80
2021/10/14 11:55:02;;;;;;;2.42;0.90;;;15.60;99.90;;;;;;6272142;22;20020;-80
2021/10/14 11:57:30;;;;;;;2.83;0.88;;;15.60;99.90;;;;;;6271724;22;20911;-81
2021/10/14 12:00:07;;;;;;;1.70;0.90;;;15.60;99.90;;;;;;6272942;22;20089;-80
2021/10/14 12:02:37;;;;;;;2.00;0.70;;;15.60;99.90;;;;;;6268618;22;20039;-79
2021/10/14 12:05:05;;;;;;;1.65;1.08;;;15.60;99.90;;;;;;6272304;22;20023;-79
2021/10/14 12:07:33;;;;;;;1.52;0.60;;;15.60;99.90;;;;;;6271840;22;20012;-79
2021/10/14 12:10:01;;;;;;;1.67;0.82;;;15.60;99.90;;;;;;6272152;22;20050;-79
2021/10/14 12:12:29;;;;;;;3.75;1.05;;;15.70;99.90;;;;;;6272009;22;20024;-79
2021/10/14 12:15:15;;;;;;;2.58;0.80;;;15.70;99.90;;;;;;6271629;22;20046;-80
2021/10/14 12:17:44;;;;;;;3.97;0.90;;;15.70;99.90;;;;;;6272212;22;20020;-79
2021/10/14 12:20:13;;;;;;;2.67;0.68;;;15.70;99.90;;;;;;6271108;22;20020;-79
2021/10/14 12:22:43;;;;;;;2.60;0.90;;;15.70;99.90;;;;;;6272308;22;20086;-79
2021/10/14 12:25:10;;;;;;;3.85;1.10;;;15.70;99.90;;;;;;6271332;22;20031;-79
2021/10/14 12:27:43;;;;;;;2.75;0.80;;;15.80;99.90;;;;;;6271861;22;20477;-79
2021/10/14 12:30:25;;;;;;;2.35;1.05;;;15.80;99.90;;;;;;6271737;22;20046;-79
2021/10/14 12:32:55;;;;;;;3.70;0.85;;;15.80;99.90;;;;;;6272315;22;20078;-79
2021/10/14 12:35:27;;;;;;;1.67;0.75;;;15.80;99.90;;;;;;6271406;22;20023;-79
2021/10/14 12:38:12;;;;;;;2.28;0.85;;;15.80;99.90;;;;;;6271931;22;20019;-79
2021/10/14 12:40:47;;;;;;;1.23;0.57;;;15.80;99.90;;;;;;6271947;22;20016;-79
2021/10/14 12:43:27;;;;;;;1.90;0.73;;;15.80;99.90;;;;;;6271766;22;20442;-81
2021/10/14 12:46:10;;;;;;;3.45;0.80;;;15.80;99.90;;;;;;6272005;22;20015;-80
2021/10/14 12:51:22;;;;;;;6.28;1.20;;;15.90;99.90;;;;;;6271179;22;20028;-79
2021/10/14 12:53:54;;;;;;;2.65;0.93;;;15.90;99.90;;;;;;6272329;22;20019;-79
2021/10/14 12:56:21;;;;;;;3.35;1.05;;;16.00;99.90;;;;;;6270047;22;20420;-79
2021/10/14 12:58:49;;;;;;;2.95;1.00;;;16.00;99.90;;;;;;6272021;22;20016;-80
2021/10/14 13:01:18;;;;;;;;;;;16.00;99.90;;;;;;6271277;22;20028;-79
2021/10/14 13:03:47;;;;;;;2.63;1.10;;;16.00;99.90;;;;;;6272690;22;20243;-79
2021/10/14 13:06:14;;;;;;;;;;;16.00;99.90;;;;;;6271779;22;20589;-80
2021/10/14 13:08:42;;;;;;;3.15;0.90;;;15.90;99.90;;;;;;6245532;22;20296;-80
2021/10/14 13:11:12;;;;;;;3.25;0.95;;;16.00;99.90;;;;;;6270808;22;20478;-80
2021/10/14 13:13:40;;;;;;;1.65;0.85;;;16.00;99.90;;;;;;6245371;22;20470;-80
2021/10/14 13:16:08;;;;;;;3.83;1.33;;;16.00;99.90;;;;;;6271263;22;20024;-79
2021/10/14 13:18:35;;;;;;;4.70;1.17;;;16.00;99.90;;;;;;6272184;22;20015;-78
2021/10/14 13:21:05;;;;;;;4.57;1.05;;;16.00;99.90;;;;;;6271469;22;20015;-80
2021/10/14 13:23:32;;;;;;;3.83;0.90;;;16.10;99.90;;;;;;6271404;22;20466;-80
2021/10/14 13:26:00;;;;;;;3.13;0.88;;;16.10;99.90;;;;;;6271850;22;20053;-80
2021/10/14 13:28:33;;;;;;;2.70;0.75;;;16.10;99.90;;;;;;6271832;22;20505;-79
2021/10/14 13:31:02;;;;;;;2.67;0.95;;;16.10;99.90;;;;;;6271818;22;20015;-79
2021/10/14 13:33:31;;;;;;;2.95;0.90;;;16.10;99.90;;;;;;6272893;22;20089;-80
2021/10/14 13:36:03;;;;;;;2.22;0.80;;;16.10;99.90;;;;;;6274011;22;20016;-80
2021/10/14 13:38:31;;;;;;;3.15;0.95;;;16.20;99.90;;;;;;6273399;22;20544;-80
2021/10/14 13:41:03;;;;;;;3.75;0.90;;;16.20;99.90;;;;;;6273688;22;20365;-79
2021/10/14 13:43:35;;;;;;;6.63;1.20;;;16.20;99.90;;;;;;6272779;22;20043;-79
2021/10/14 13:46:03;;;;;;;4.40;1.15;;;16.20;99.90;;;;;;6274124;22;20081;-80
2021/10/14 13:48:31;;;;;;;4.28;1.10;;;16.20;99.90;;;;;;6273192;22;20015;-79
2021/10/14 13:50:59;;;;;;;3.57;1.17;;;16.20;99.90;;;;;;6273324;22;20070;-80
2021/10/14 13:53:26;;;;;;;3.53;0.98;;;16.20;99.90;;;;;;6272781;22;20077;-80
2021/10/14 13:55:53;;;;;;;5.50;1.10;;;16.20;99.90;;;;;;6273431;22;20389;-79
2021/10/14 13:58:21;;;;;;;3.47;1.00;;;16.30;99.90;;;;;;6273147;22;20077;-81
2021/10/14 14:00:49;;;;;;;3.17;0.98;;;16.20;99.90;;;;;;6246084;22;20535;-80
2021/10/14 14:03:17;;;;;;;3.35;1.20;;;16.30;99.90;;;;;;6272694;22;20019;-80
2021/10/14 14:05:46;;;;;;;3.20;0.98;;;16.30;99.90;;;;;;6273611;22;20030;-79
2021/10/14 14:08:14;;;;;;;3.97;0.90;;;16.30;99.90;;;;;;6272957;22;20065;-80
2021/10/14 14:10:42;;;;;;;3.85;1.10;;;16.30;99.90;;;;;;6273451;22;20392;-79
2021/10/14 14:13:09;;;;;;;2.72;1.40;;;16.30;99.90;;;;;;6272451;22;20024;-79
2021/10/14 14:15:42;;;;;;;4.57;1.70;;;16.30;99.90;;;;;;6272845;22;20019;-79
2021/10/14 14:18:12;;;;;;;6.03;1.77;;;16.30;99.90;;;;;;6272684;22;20073;-79
2021/10/14 14:20:43;;;;;;;5.40;1.50;;;16.30;99.90;;;;;;6271701;22;20477;-79
2021/10/14 14:23:12;;;;;;;3.40;1.15;;;16.30;99.90;;;;;;6271392;22;20019;-79
2021/10/14 14:25:40;;;;;;;3.83;1.77;;;16.30;99.90;;;;;;6272256;22;20016;-79
2021/10/14 14:28:08;;;;;;;3.88;1.65;;;16.30;99.90;;;;;;6271258;22;20073;-80
2021/10/14 14:30:35;;;;;;;5.60;1.80;;;16.30;99.90;;;;;;6270957;22;20478;-80
2021/10/14 14:33:03;;;;;;;4.32;1.70;;;16.30;99.90;;;;;;6264407;22;20020;-79
2021/10/14 14:35:30;;;;;;;5.43;1.50;;;16.30;99.90;;;;;;6270739;22;20015;-79
2021/10/14 14:37:58;;;;;;;6.53;1.80;;;16.30;99.90;;;;;;6272228;22;20077;-80
2021/10/14 14:40:26;;;;;;;4.88;1.60;;;16.30;99.90;;;;;;6271730;22;20032;-80
2021/10/14 14:42:53;;;;;;;2.63;1.00;;;16.30;99.90;;;;;;6271502;22;20020;-80
2021/10/14 14:45:20;;;;;;;4.43;1.25;;;16.30;99.90;;;;;;6268928;22;20023;-80
2021/10/14 14:47:51;;;;;;;4.60;1.30;;;16.30;99.90;;;;;;6271441;22;20020;-80
2021/10/14 14:50:20;;;;;;;3.33;1.20;;;16.30;99.90;;;;;;6272036;22;20027;-79
2021/10/14 14:52:47;;;;;;;3.80;1.00;;;16.30;99.90;;;;;;6271624;22;20473;-80
2021/10/14 14:55:15;;;;;;;4.90;1.20;;;16.30;99.90;;;;;;6270398;22;20089;-81
2021/10/14 14:57:42;;;;;;;3.05;1.08;;;16.30;99.90;;;;;;6271181;22;20400;-82
2021/10/14 15:00:09;;;;;;;3.28;1.25;;;16.30;99.90;;;;;;6271642;22;20024;-80
2021/10/14 15:02:36;;;;;;;5.00;1.00;;;16.30;99.90;;;;;;6271944;22;20023;-80
2021/10/14 15:05:04;;;;;;;5.85;1.10;;;16.30;99.90;;;;;;6271556;22;20027;-81
2021/10/14 15:07:44;;;;;;;3.63;0.90;;;16.30;99.90;;;;;;6269734;22;20019;-81
2021/10/14 15:10:11;;;;;;;5.78;1.00;;;16.30;99.90;;;;;;6270269;22;20399;-82
2021/10/14 15:12:38;;;;;;;4.43;1.10;;;16.30;99.90;;;;;;6270916;22;20024;-81
2021/10/14 15:15:06;;;;;;;3.25;1.10;;;16.30;99.90;;;;;;6270644;22;20016;-80
2021/10/14 15:17:33;;;;;;;3.53;1.00;;;16.30;99.90;;;;;;6270773;22;20020;-81
2021/10/14 15:20:00;;;;;;;3.15;1.20;;;16.30;99.90;;;;;;6271275;22;20369;-81
2021/10/14 15:22:27;;;;;;;3.00;1.35;;;16.30;99.90;;;;;;6270240;22;20086;-81
2021/10/14 15:24:54;;;;;;;2.92;1.30;;;16.30;99.90;;;;;;6271214;22;20020;-80
2021/10/14 15:27:23;;;;;;;2.63;1.10;;;16.30;99.90;;;;;;6270901;22;20024;-82
2021/10/14 15:29:51;;;;;;;3.67;0.93;;;16.30;99.90;;;;;;6271949;22;20019;-80
2021/10/14 15:32:18;;;;;;;4.72;0.88;;;16.30;99.90;;;;;;6268448;22;20127;-82
2021/10/14 15:34:45;;;;;;;3.42;1.10;;;16.30;99.90;;;;;;6272274;22;20478;-81
2021/10/14 15:37:21;;;;;;;5.57;1.20;;;16.30;99.90;;;;;;6270279;22;20039;-82
2021/10/14 15:39:50;;;;;;;3.72;1.00;;;16.30;99.90;;;;;;6270928;22;20555;-81
2021/10/14 15:42:22;;;;;;;3.08;0.98;;;16.30;99.90;;;;;;6270151;22;20022;-81
2021/10/14 15:44:49;;;;;;;4.05;1.02;;;16.30;99.90;;;;;;6272002;22;20065;-82
2021/10/14 15:47:16;;;;;;;3.50;1.23;;;16.30;99.90;;;;;;6271123;22;20032;-82
2021/10/14 15:49:43;;;;;;;2.53;0.90;;;16.30;99.90;;;;;;6272502;22;20023;-81
2021/10/14 15:52:10;;;;;;;4.00;1.10;;;16.20;99.90;;;;;;6271232;22;20073;-82
2021/10/14 15:54:37;;;;;;;3.88;1.08;;;16.20;99.90;;;;;;6271443;22;20021;-80
2021/10/14 15:57:10;;;;;;;2.63;0.90;;;16.20;99.90;;;;;;6244767;22;20070;-80
2021/10/14 15:59:37;;;;;;;3.97;1.50;;;16.20;99.90;;;;;;6271862;22;20073;-80
2021/10/14 16:02:04;;;;;;;3.72;1.08;;;16.10;99.90;;;;;;6270621;22;20099;-81
2021/10/14 16:04:32;;;;;;;2.65;1.20;;;16.10;99.90;;;;;;6270624;22;20091;-81
2021/10/14 16:07:01;;;;;;;1.98;1.00;;;16.00;99.90;;;;;;6255732;22;20489;-81
2021/10/14 16:09:28;;;;;;;3.38;1.00;;;16.00;99.90;;;;;;6268350;22;20019;-82
2021/10/14 16:11:55;;;;;;;3.13;1.25;;;15.90;99.90;;;;;;6270777;22;20073;-82
2021/10/14 16:14:22;;;;;;;3.50;1.48;;;15.90;99.90;;;;;;6271333;22;20094;-82
2021/10/14 16:16:49;;;;;;;3.10;1.08;;;15.90;99.90;;;;;;6271472;22;20449;-82
2021/10/14 16:19:16;;;;;;;6.68;1.00;;;15.80;99.90;;;;;;6270004;22;20036;-82
2021/10/14 16:21:43;;;;;;;3.45;1.10;;;15.80;99.90;;;;;;6271865;22;20016;-81
2021/10/14 16:24:10;;;;;;;4.88;1.27;;;15.70;99.90;;;;;;6270644;22;20413;-82
2021/10/14 16:26:40;;;;;;;2.20;1.00;;;15.60;99.90;;;;;;6271815;22;20515;-82
2021/10/14 16:29:07;;;;;;;3.53;1.17;;;15.60;99.90;;;;;;6270684;22;20473;-79
2021/10/14 16:31:34;;;;;;;3.15;1.05;;;15.50;99.90;;;;;;6271506;22;20019;-80
2021/10/14 16:36:50;;;;;;;;;;;15.40;99.90;;;;;;6271959;22;20377;-81
2021/10/14 16:39:17;;;;;;;3.60;1.23;;;15.30;99.90;;;;;;6270453;22;19915;-82
2021/10/14 16:41:44;;;;;;;3.55;1.00;;;15.30;99.90;;;;;;6269898;22;20023;-80
2021/10/14 16:44:11;;;;;;;3.25;1.13;;;15.20;99.90;;;;;;6270513;22;20016;-81
2021/10/14 16:46:38;;;;;;;2.60;1.27;;;15.20;99.90;;;;;;6271139;22;20020;-80
2021/10/14 16:49:05;;;;;;;5.30;1.30;;;15.10;99.90;;;;;;6269541;22;20097;-79
2021/10/14 16:51:32;;;;;;;4.47;1.10;;;15.10;99.90;;;;;;6270184;22;20016;-81
2021/10/14 16:54:00;;;;;;;3.60;1.52;;;15.10;99.90;;;;;;6271119;22;20016;-80
2021/10/14 16:56:27;;;;;;;2.33;1.10;;;15.00;99.90;;;;;;6270136;22;20024;-80
2021/10/14 16:58:55;;;;;;;;;;;14.90;99.90;;;;;;6270629;22;20019;-80
2021/10/14 17:01:22;;;;;;;4.35;1.08;;;14.80;99.90;;;;;;6269930;22;19923;-80
2021/10/14 17:03:51;;;;;;;3.88;1.95;;;14.80;99.90;;;;;;6270356;22;20069;-80
2021/10/14 17:06:18;;;;;;;3.50;1.10;;;14.70;99.90;;;;;;6270354;22;20047;-80
2021/10/14 17:08:44;;;;;;;4.82;1.40;;;14.70;99.90;;;;;;6273078;22;20015;-80
2021/10/14 17:11:24;;;;;;;4.25;1.40;;;14.60;99.90;;;;;;6244931;22;20020;-80
2021/10/14 17:13:56;;;;;;;3.83;1.05;;;14.60;99.90;;;;;;6272390;22;20012;-80
2021/10/14 17:16:24;;;;;;;4.53;1.45;;;14.50;99.90;;;;;;6272089;22;20088;-80
2021/10/14 17:18:54;;;;;;;2.40;1.27;;;14.50;99.90;;;;;;6246762;22;20090;-80
2021/10/14 17:37:52;;;;;;;4.47;1.42;;;13.80;99.90;;;;;;6272188;22;20026;-80
2021/10/14 17:40:43;;;;;;;3.95;1.60;;;13.70;99.90;;;;;;6272623;22;20087;-80
2021/10/14 17:43:15;;;;;;;2.50;1.35;;;13.50;99.90;;;;;;6271698;22;20077;-80
2021/10/14 17:48:18;;;;;;;5.13;1.77;;;13.30;99.90;;;;;;6273293;22;20015;-79
2021/10/14 17:50:47;;;;;;;3.92;1.45;;;13.20;99.90;;;;;;6267070;22;20077;-78
2021/10/14 17:53:14;;;;;;;3.55;1.17;;;13.10;99.90;;;;;;6265463;22;20032;-78
2021/10/14 17:55:41;;;;;;;4.75;1.50;;;13.00;99.90;;;;;;6266841;22;20419;-79
2021/10/14 17:58:08;;;;;;;3.15;1.80;;;12.90;99.90;;;;;;6265082;22;20031;-79
2021/10/14 18:00:35;;;;;;;5.55;1.90;;;12.80;99.90;;;;;;6265223;22;20103;-78
2021/10/14 18:03:20;;;;;;;8.05;3.75;;;12.80;99.90;;;;;;6267976;22;20018;-79
2021/10/14 18:05:59;;;;;;;6.00;3.35;;;12.60;99.90;;;;;;6266731;22;20066;-79
2021/10/14 18:38:14;;;;;;;7.00;1.58;;;11.70;99.90;;;;;;6266005;22;20077;-79
2021/10/14 18:40:43;;;;;;;2.83;1.15;;;11.60;99.90;;;;;;6266025;22;20342;-80
2021/10/14 18:43:17;;;;;;;3.88;1.27;;;11.50;99.90;;;;;;6265878;22;20068;-78
2021/10/14 18:46:00;;;;;;;5.10;1.35;;;11.50;99.90;;;;;;6266548;22;20074;-78
2021/10/14 18:48:28;;;;;;;2.65;1.20;;;11.40;99.90;;;;;;6263788;22;20486;-78
2021/10/14 18:50:57;;;;;;;4.10;1.20;;;11.30;99.90;;;;;;6265846;22;20024;-78
2021/10/14 18:53:24;;;;;;;4.63;1.55;;;11.30;99.90;;;;;;6264967;22;20028;-78
2021/10/14 18:55:54;;;;;;;4.68;1.27;;;11.30;99.90;;;;;;6238231;22;20012;-78
2021/10/14 18:58:21;;;;;;;3.72;1.02;;;11.20;99.90;;;;;;6266437;22;20441;-77
2021/10/14 19:00:48;;;;;;;3.75;1.52;;;11.20;99.90;;;;;;6267343;22;20023;-78
2021/10/14 19:06:21;;;;;;;3.38;1.70;;;11.10;99.90;;;;;;6114469;23;20029;-78
2021/10/14 19:14:41;;;;;;;2.72;1.10;;;10.90;99.90;;;;;;6114341;23;20409;-78
2021/10/14 19:17:07;;;;;;;4.85;1.73;;;10.90;99.90;;;;;;6111669;23;20026;-78
2021/10/14 20:22:13;;;;;;;5.65;2.17;;;10.10;99.90;;;;;;6141968;23;20021;-79
2021/10/14 20:24:40;;;;;;;4.28;1.73;;;10.00;99.90;;;;;;6141722;23;20022;-79
2021/10/14 20:27:06;;;;;;;8.05;2.33;;;10.00;99.90;;;;;;6142579;23;20026;-78
2021/10/14 20:29:33;;;;;;;5.88;2.50;;;10.00;99.90;;;;;;6119031;23;20199;-79
2021/10/14 20:32:00;;;;;;;4.82;1.80;;;10.00;99.90;;;;;;6143691;23;20022;-77
2021/10/14 20:36:57;;;;;;;7.85;2.33;;;10.00;99.90;;;;;;6141941;23;20073;-78
2021/10/14 20:39:24;;;;;;;7.90;2.00;;;10.00;99.90;;;;;;6144345;23;20026;-77
2021/10/14 20:41:51;;;;;;;5.90;2.55;;;10.00;99.90;;;;;;6149313;23;20475;-76
2021/10/14 20:44:18;;;;;;;7.90;2.58;;;10.00;99.90;;;;;;6148852;23;20363;-77
2021/10/14 20:46:45;;;;;;;6.70;2.38;;;9.90;99.90;;;;;;6150351;23;20563;-77
2021/10/14 20:49:12;;;;;;;7.78;2.63;;;9.90;99.90;;;;;;6253225;22;20071;-78
2021/10/14 20:51:49;;;;;;;9.10;2.83;;;10.00;99.90;;;;;;6274070;22;20019;-77
2021/10/14 20:54:42;;;;;;;4.82;1.90;;;10.00;99.90;;;;;;6272849;22;20084;-77
2021/10/14 21:02:49;;;;;;;4.95;2.60;;;10.00;99.90;;;;;;6273239;22;20011;-77
2021/10/14 21:05:25;;;;;;;9.20;2.65;;;10.10;99.90;;;;;;6272962;22;20027;-77
2021/10/14 21:07:53;;;;;;;5.82;3.17;;;10.00;99.90;;;;;;6274090;22;20077;-77
2021/10/14 21:10:21;;;;;;;6.63;2.75;;;10.00;99.90;;;;;;6272667;22;20563;-78
2021/10/14 21:12:49;;;;;;;8.32;3.47;;;10.10;99.90;;;;;;6273996;22;20032;-77